createdAt,value
2018-06-19T00:00:35.880Z,21.53
2018-06-19T00:02:15.659Z,21.62
2018-06-19T00:03:54.173Z,21.68
2018-06-19T00:05:31.232Z,21.92
2018-06-19T00:07:09.528Z,22.14
2018-06-19T00:08:46.610Z,22.20
2018-06-19T00:10:24.615Z,21.84
2018-06-19T00:12:00.967Z,21.55
2018-06-19T00:13:38.157Z,21.80
2018-06-19T00:15:18.490Z,21.93
2018-06-19T00:16:57.148Z,22.02
2018-06-19T00:18:55.572Z,21.75
2018-06-19T00:20:32.659Z,21.69
2018-06-19T00:22:09.856Z,21.51
2018-06-19T00:23:47.393Z,21.46
2018-06-19T00:25:24.584Z,21.44
2018-06-19T00:27:01.675Z,21.42
2018-06-19T00:28:42.872Z,21.39
2018-06-19T00:30:20.858Z,21.50
2018-06-19T00:31:59.421Z,21.73
2018-06-19T00:33:37.587Z,21.35
2018-06-19T00:35:14.408Z,21.23
2018-06-19T00:36:52.649Z,21.30
2018-06-19T00:38:29.789Z,21.22
2018-06-19T00:40:07.232Z,21.47
2018-06-19T00:41:43.981Z,21.64
2018-06-19T00:43:20.795Z,21.81
2018-06-19T00:44:58.147Z,21.74
2018-06-19T00:46:36.374Z,21.31
2018-06-19T00:48:12.710Z,21.13
2018-06-19T00:49:49.318Z,21.02
2018-06-19T00:51:26.036Z,20.90
2018-06-19T00:53:02.289Z,20.80
2018-06-19T00:54:38.590Z,20.86
2018-06-19T00:57:24.284Z,20.73
2018-06-19T00:59:03.415Z,20.92
2018-06-19T01:00:40.071Z,20.87
2018-06-19T01:02:16.293Z,21.02
2018-06-19T01:03:52.579Z,21.23
2018-06-19T01:05:28.837Z,21.16
2018-06-19T01:08:35.138Z,21.25
2018-06-19T01:10:11.955Z,21.42
2018-06-19T01:11:48.494Z,21.16
2018-06-19T01:13:24.948Z,20.83
2018-06-19T01:15:02.585Z,20.68
2018-06-19T01:16:39.035Z,20.46
2018-06-19T01:18:15.722Z,20.42
2018-06-19T01:19:53.478Z,20.50
2018-06-19T01:21:32.830Z,20.54
2018-06-19T01:23:09.297Z,20.35
2018-06-19T01:24:47.194Z,20.53
2018-06-19T01:26:23.835Z,20.57
2018-06-19T01:28:00.873Z,20.64
2018-06-19T01:29:37.415Z,21.05
2018-06-19T01:31:13.911Z,21.30
2018-06-19T01:32:50.046Z,21.38
2018-06-19T01:34:26.874Z,21.27
2018-06-19T01:36:04.217Z,21.04
2018-06-19T01:37:40.495Z,21.07
2018-06-19T01:39:16.727Z,20.78
2018-06-19T01:40:53.697Z,20.70
2018-06-19T01:42:30.619Z,20.84
2018-06-19T01:44:08.599Z,20.78
2018-06-19T01:45:45.455Z,20.91
2018-06-19T01:47:22.147Z,20.85
2018-06-19T01:48:58.745Z,20.81
2018-06-19T01:50:35.027Z,20.97
2018-06-19T01:52:11.730Z,20.98
2018-06-19T01:53:48.435Z,20.62
2018-06-19T01:55:24.705Z,20.66
2018-06-19T01:57:00.907Z,20.59
2018-06-19T01:58:37.833Z,20.77
2018-06-19T02:00:16.624Z,20.73
2018-06-19T02:01:52.932Z,20.70
2018-06-19T02:03:29.958Z,20.56
2018-06-19T02:05:06.567Z,20.36
2018-06-19T02:06:43.493Z,20.34
2018-06-19T02:08:20.334Z,20.56
2018-06-19T02:09:56.710Z,20.35
2018-06-19T02:11:33.795Z,20.38
2018-06-19T02:13:10.565Z,20.41
2018-06-19T02:14:46.837Z,20.63
2018-06-19T02:16:23.148Z,20.73
2018-06-19T02:17:59.510Z,20.85
2018-06-19T02:19:36.302Z,20.82
2018-06-19T02:21:12.539Z,20.79
2018-06-19T02:22:48.846Z,20.76
2018-06-19T02:24:25.121Z,20.75
2018-06-19T02:26:01.967Z,20.50
2018-06-19T02:27:38.699Z,20.56
2018-06-19T02:29:14.913Z,20.57
2018-06-19T02:30:53.272Z,20.77
2018-06-19T02:32:30.071Z,20.89
2018-06-19T02:34:06.995Z,20.82
2018-06-19T02:35:43.651Z,20.78
2018-06-19T02:37:19.870Z,20.59
2018-06-19T02:38:56.553Z,20.66
2018-06-19T02:40:33.662Z,20.78
2018-06-19T02:42:09.992Z,20.78
2018-06-19T02:43:46.148Z,20.85
2018-06-19T02:45:24.859Z,20.87
2018-06-19T02:47:01.447Z,20.89
2018-06-19T02:48:37.758Z,21.06
2018-06-19T02:50:14.601Z,21.00
2018-06-19T02:51:51.313Z,20.84
2018-06-19T02:53:28.431Z,20.92
2018-06-19T02:55:05.895Z,21.01
2018-06-19T02:56:42.683Z,21.05
2018-06-19T02:58:19.426Z,21.05
2018-06-19T02:59:55.877Z,20.87
2018-06-19T03:01:35.935Z,20.67
2018-06-19T03:03:12.295Z,20.36
2018-06-19T03:04:49.995Z,20.41
2018-06-19T03:06:26.199Z,20.62
2018-06-19T03:08:02.513Z,20.71
2018-06-19T03:09:39.338Z,20.55
2018-06-19T03:11:15.963Z,20.59
2018-06-19T03:12:52.958Z,20.55
2018-06-19T03:14:35.671Z,20.61
2018-06-19T03:16:12.275Z,20.23
2018-06-19T03:17:48.859Z,19.67
2018-06-19T03:19:25.792Z,19.30
2018-06-19T03:21:02.050Z,19.33
2018-06-19T03:22:38.387Z,19.61
2018-06-19T03:24:14.910Z,19.92
2018-06-19T03:25:51.173Z,20.11
2018-06-19T03:27:27.402Z,20.09
2018-06-19T03:29:03.618Z,20.15
2018-06-19T03:30:41.240Z,20.21
2018-06-19T03:32:17.466Z,20.24
2018-06-19T03:33:54.588Z,20.39
2018-06-19T03:35:31.474Z,20.31
2018-06-19T03:37:08.977Z,20.49
2018-06-19T03:38:45.212Z,20.47
2018-06-19T03:40:22.151Z,20.20
2018-06-19T03:41:58.442Z,19.69
2018-06-19T03:43:35.291Z,19.66
2018-06-19T03:45:14.769Z,19.90
2018-06-19T03:46:51.375Z,19.69
2018-06-19T03:48:27.607Z,19.79
2018-06-19T03:50:04.680Z,20.02
2018-06-19T03:51:40.950Z,19.93
2018-06-19T03:53:18.495Z,20.08
2018-06-19T03:54:54.706Z,20.35
2018-06-19T03:56:31.369Z,20.28
2018-06-19T03:58:08.042Z,20.41
2018-06-19T03:59:44.836Z,20.23
2018-06-19T04:01:21.304Z,20.20
2018-06-19T04:02:57.845Z,20.36
2018-06-19T04:04:36.473Z,20.35
2018-06-19T04:06:15.623Z,20.36
2018-06-19T04:07:51.934Z,20.29
2018-06-19T04:09:29.273Z,19.98
2018-06-19T04:11:05.455Z,20.28
2018-06-19T04:12:41.779Z,20.50
2018-06-19T04:14:18.454Z,20.63
2018-06-19T04:16:01.280Z,20.65
2018-06-19T04:17:37.219Z,20.58
2018-06-19T04:19:13.337Z,20.25
2018-06-19T04:20:50.695Z,19.85
2018-06-19T04:22:28.891Z,19.80
2018-06-19T04:24:06.183Z,20.00
2018-06-19T04:25:44.351Z,19.83
2018-06-19T04:27:21.334Z,19.89
2018-06-19T04:28:58.419Z,19.53
2018-06-19T04:30:35.391Z,19.65
2018-06-19T04:32:12.127Z,19.79
2018-06-19T04:33:48.363Z,20.01
2018-06-19T04:35:25.256Z,20.22
2018-06-19T04:37:01.707Z,20.29
2018-06-19T04:38:38.899Z,20.30
2018-06-19T04:40:15.150Z,20.23
2018-06-19T04:41:51.910Z,20.27
2018-06-19T04:43:28.798Z,20.16
2018-06-19T04:45:05.196Z,20.09
2018-06-19T04:46:42.922Z,20.22
2018-06-19T04:48:20.231Z,20.38
2018-06-19T04:49:56.441Z,20.40
2018-06-19T04:51:33.579Z,20.44
2018-06-19T04:53:11.356Z,20.27
2018-06-19T04:54:48.816Z,19.67
2018-06-19T04:56:25.844Z,19.75
2018-06-19T04:58:04.202Z,19.86
2018-06-19T04:59:42.051Z,19.83
2018-06-19T05:01:19.825Z,19.49
2018-06-19T05:02:56.096Z,19.67
2018-06-19T05:04:32.553Z,19.88
2018-06-19T05:06:09.770Z,20.00
2018-06-19T05:07:47.279Z,19.86
2018-06-19T05:09:23.519Z,20.07
2018-06-19T05:10:59.699Z,20.39
2018-06-19T05:12:35.918Z,20.39
2018-06-19T05:14:12.364Z,20.21
2018-06-19T05:15:48.878Z,20.27
2018-06-19T05:17:25.682Z,20.49
2018-06-19T05:19:05.591Z,20.19
2018-06-19T05:20:44.535Z,20.36
2018-06-19T05:22:21.957Z,20.28
2018-06-19T05:23:58.152Z,20.47
2018-06-19T05:25:34.471Z,20.66
2018-06-19T05:27:18.476Z,20.81
2018-06-19T05:28:55.459Z,20.82
2018-06-19T05:30:33.544Z,20.76
2018-06-19T05:32:09.871Z,20.85
2018-06-19T05:33:49.691Z,20.88
2018-06-19T05:35:26.023Z,21.11
2018-06-19T05:37:02.319Z,20.83
2018-06-19T05:38:38.633Z,20.53
2018-06-19T05:40:15.362Z,20.48
2018-06-19T05:41:53.288Z,20.68
2018-06-19T05:43:30.611Z,20.94
2018-06-19T05:45:07.567Z,21.17
2018-06-19T05:46:45.488Z,21.22
2018-06-19T05:48:21.710Z,21.41
2018-06-19T05:49:58.418Z,21.41
2018-06-19T05:51:34.715Z,21.43
2018-06-19T05:53:11.459Z,21.22
2018-06-19T05:54:49.560Z,20.89
2018-06-19T05:56:27.499Z,20.97
2018-06-19T05:58:08.669Z,20.72
2018-06-19T05:59:45.934Z,20.63
2018-06-19T06:01:23.769Z,20.91
2018-06-19T06:02:59.982Z,21.12
2018-06-19T06:04:38.521Z,21.34
2018-06-19T06:06:17.638Z,21.44
2018-06-19T06:07:56.207Z,21.23
2018-06-19T06:09:36.866Z,21.38
2018-06-19T06:11:13.220Z,21.41
2018-06-19T06:12:51.400Z,21.07
2018-06-19T06:14:29.239Z,21.03
2018-06-19T06:16:05.751Z,20.84
2018-06-19T06:17:42.979Z,20.78
2018-06-19T06:19:21.874Z,21.11
2018-06-19T06:20:59.544Z,21.16
2018-06-19T06:22:37.567Z,21.37
2018-06-19T06:25:49.746Z,21.48
2018-06-19T06:27:26.894Z,21.44
2018-06-19T06:29:03.214Z,21.49
2018-06-19T06:30:40.447Z,21.38
2018-06-19T06:32:16.863Z,21.29
2018-06-19T06:33:55.206Z,21.14
2018-06-19T06:35:31.427Z,21.32
2018-06-19T06:37:08.244Z,21.44
2018-06-19T06:38:44.923Z,21.52
2018-06-19T06:40:21.857Z,21.66
2018-06-19T06:42:00.772Z,21.50
2018-06-19T06:43:37.050Z,21.56
2018-06-19T06:45:16.163Z,21.62
2018-06-19T06:46:53.721Z,21.37
2018-06-19T06:48:30.959Z,21.15
2018-06-19T06:50:07.262Z,21.06
2018-06-19T06:51:45.675Z,21.00
2018-06-19T06:53:21.905Z,20.96
2018-06-19T06:54:58.212Z,20.81
2018-06-19T06:56:34.518Z,21.13
2018-06-19T06:58:11.987Z,21.38
2018-06-19T06:59:50.607Z,21.49
2018-06-19T07:01:27.332Z,21.53
2018-06-19T07:03:03.655Z,21.76
2018-06-19T07:04:39.918Z,21.49
2018-06-19T07:06:16.186Z,21.55
2018-06-19T07:07:53.295Z,21.69
2018-06-19T07:09:30.069Z,21.65
2018-06-19T07:11:08.452Z,21.77
2018-06-19T07:12:44.657Z,22.07
2018-06-19T07:14:20.912Z,22.13
2018-06-19T07:15:58.043Z,22.03
2018-06-19T07:17:35.576Z,22.01
2018-06-19T07:19:11.993Z,22.20
2018-06-19T07:20:52.411Z,22.18
2018-06-19T07:22:29.977Z,21.91
2018-06-19T07:24:07.309Z,21.55
2018-06-19T07:25:43.554Z,21.67
2018-06-19T07:27:20.698Z,21.94
2018-06-19T07:29:04.981Z,21.88
2018-06-19T07:30:42.322Z,21.59
2018-06-19T07:32:19.043Z,21.53
2018-06-19T07:33:57.076Z,21.50
2018-06-19T07:35:35.955Z,21.64
2018-06-19T07:37:13.742Z,21.77
2018-06-19T07:38:52.011Z,21.79
2018-06-19T07:40:29.173Z,21.75
2018-06-19T07:42:06.832Z,21.45
2018-06-19T07:43:44.680Z,21.47
2018-06-19T07:45:21.244Z,21.80
2018-06-19T07:47:00.377Z,21.50
2018-06-19T07:48:36.633Z,21.77
2018-06-19T07:50:12.976Z,21.61
2018-06-19T07:51:49.630Z,21.83
2018-06-19T07:53:25.911Z,21.98
2018-06-19T07:55:02.810Z,22.11
2018-06-19T07:56:40.350Z,22.09
2018-06-19T07:58:17.527Z,22.01
2018-06-19T07:59:54.565Z,21.99
2018-06-19T08:01:33.253Z,21.89
2018-06-19T08:03:09.361Z,21.59
2018-06-19T08:04:46.156Z,21.49
2018-06-19T08:06:22.467Z,21.32
2018-06-19T08:07:59.424Z,21.43
2018-06-19T08:09:36.502Z,21.52
2018-06-19T08:11:13.918Z,21.82
2018-06-19T08:12:51.017Z,21.98
2018-06-19T08:14:27.277Z,21.94
2018-06-19T08:16:05.472Z,21.78
2018-06-19T08:17:42.042Z,21.86
2018-06-19T08:19:19.805Z,21.68
2018-06-19T08:20:57.447Z,21.60
2018-06-19T08:22:34.628Z,21.97
2018-06-19T08:24:13.439Z,22.20
2018-06-19T08:25:50.284Z,22.34
2018-06-19T08:27:27.716Z,22.53
2018-06-19T08:29:04.947Z,22.65
2018-06-19T08:30:41.195Z,22.57
2018-06-19T08:32:17.404Z,22.23
2018-06-19T08:33:53.701Z,22.38
2018-06-19T08:35:30.491Z,22.45
2018-06-19T08:37:07.335Z,22.31
2018-06-19T08:38:43.685Z,22.48
2018-06-19T08:40:21.002Z,22.65
2018-06-19T08:41:59.583Z,22.75
2018-06-19T08:43:38.242Z,22.70
2018-06-19T08:45:18.765Z,22.72
2018-06-19T08:46:56.172Z,22.82
2018-06-19T08:48:33.395Z,22.71
2018-06-19T08:50:15.429Z,22.69
2018-06-19T08:51:58.539Z,22.53
2018-06-19T08:53:35.626Z,22.71
2018-06-19T08:55:14.772Z,23.02
2018-06-19T08:56:52.785Z,23.08
2018-06-19T08:58:29.573Z,23.05
2018-06-19T09:00:06.764Z,22.97
2018-06-19T09:01:48.649Z,22.61
2018-06-19T09:03:25.362Z,22.23
2018-06-19T09:05:02.685Z,22.45
2018-06-19T09:06:41.801Z,22.52
2018-06-19T09:08:19.141Z,22.36
2018-06-19T09:09:57.435Z,22.59
2018-06-19T09:11:33.723Z,22.79
2018-06-19T09:13:11.327Z,22.74
2018-06-19T09:14:47.639Z,23.04
2018-06-19T09:16:24.761Z,23.00
2018-06-19T09:18:01.251Z,22.76
2018-06-19T09:19:41.172Z,22.53
2018-06-19T09:21:17.496Z,22.84
2018-06-19T09:22:54.211Z,23.08
2018-06-19T09:24:31.260Z,23.04
2018-06-19T09:26:08.544Z,22.87
2018-06-19T09:27:45.611Z,22.96
2018-06-19T09:29:22.414Z,22.73
2018-06-19T09:30:59.902Z,22.63
2018-06-19T09:32:36.191Z,22.73
2018-06-19T09:34:12.607Z,22.65
2018-06-19T09:35:50.513Z,22.82
2018-06-19T09:37:27.744Z,22.80
2018-06-19T09:39:07.433Z,23.15
2018-06-19T09:40:46.311Z,23.25
2018-06-19T09:42:25.475Z,22.87
2018-06-19T09:44:03.544Z,23.04
2018-06-19T09:45:39.728Z,23.23
2018-06-19T09:47:17.908Z,23.33
2018-06-19T09:48:55.611Z,22.93
2018-06-19T09:50:31.936Z,23.07
2018-06-19T09:52:09.405Z,23.25
2018-06-19T09:53:49.571Z,23.34
2018-06-19T09:55:26.792Z,23.06
2018-06-19T09:57:03.236Z,23.23
2018-06-19T09:58:41.387Z,23.51
2018-06-19T10:00:49.327Z,23.57
2018-06-19T10:02:26.512Z,23.80
2018-06-19T10:04:02.908Z,23.87
2018-06-19T10:05:39.263Z,23.85
2018-06-19T10:07:20.870Z,23.73
2018-06-19T10:08:59.234Z,23.41
2018-06-19T10:10:35.789Z,23.61
2018-06-19T10:12:12.300Z,23.62
2018-06-19T10:13:48.953Z,23.68
2018-06-19T10:15:27.639Z,23.79
2018-06-19T10:17:04.886Z,23.84
2018-06-19T10:18:41.735Z,23.92
2018-06-19T10:22:01.752Z,23.92
2018-06-19T10:23:41.120Z,23.91
2018-06-19T10:25:18.290Z,23.92
2018-06-19T10:26:55.298Z,23.65
2018-06-19T10:28:33.986Z,23.25
2018-06-19T10:30:11.696Z,23.46
2018-06-19T10:31:48.342Z,23.66
2018-06-19T10:33:27.174Z,23.51
2018-06-19T10:35:08.157Z,23.25
2018-06-19T10:36:46.874Z,23.41
2018-06-19T10:38:23.882Z,23.64
2018-06-19T10:40:02.519Z,23.74
2018-06-19T10:41:40.257Z,23.39
2018-06-19T10:43:17.323Z,23.63
2018-06-19T10:44:53.655Z,23.93
2018-06-19T10:46:31.332Z,24.17
2018-06-19T10:48:08.445Z,24.03
2018-06-19T10:49:45.831Z,24.21
2018-06-19T10:51:25.680Z,24.19
2018-06-19T10:53:06.566Z,24.40
2018-06-19T10:54:42.849Z,24.51
2018-06-19T10:56:22.660Z,24.48
2018-06-19T10:57:58.947Z,24.38
2018-06-19T10:59:38.406Z,24.41
2018-06-19T11:01:16.384Z,24.36
2018-06-19T11:02:53.511Z,24.26
2018-06-19T11:04:30.568Z,24.17
2018-06-19T11:06:07.366Z,23.86
2018-06-19T11:07:43.739Z,24.11
2018-06-19T11:09:19.953Z,24.39
2018-06-19T11:10:56.926Z,24.51
2018-06-19T11:12:35.834Z,24.68
2018-06-19T11:14:14.532Z,24.72
2018-06-19T11:15:53.751Z,24.88
2018-06-19T11:17:29.987Z,25.04
2018-06-19T11:19:06.802Z,25.02
2018-06-19T11:20:45.211Z,25.12
2018-06-19T11:22:21.522Z,25.24
2018-06-19T11:23:58.423Z,25.14
2018-06-19T11:25:36.483Z,25.06
2018-06-19T11:27:14.606Z,24.79
2018-06-19T11:28:51.981Z,24.92
2018-06-19T11:30:29.344Z,25.10
2018-06-19T11:32:09.555Z,25.07
2018-06-19T11:33:45.863Z,25.07
2018-06-19T11:35:24.647Z,24.92
2018-06-19T11:37:03.551Z,24.84
2018-06-19T11:38:42.247Z,24.62
2018-06-19T11:40:21.562Z,24.92
2018-06-19T11:42:30.333Z,24.70
2018-06-19T11:44:12.431Z,25.06
2018-06-19T11:45:51.020Z,25.20
2018-06-19T11:47:29.886Z,25.25
2018-06-19T11:49:06.825Z,25.27
2018-06-19T11:50:43.534Z,25.56
2018-06-19T11:52:19.780Z,25.64
2018-06-19T11:53:58.191Z,25.71
2018-06-19T11:55:34.556Z,25.64
2018-06-19T11:57:11.840Z,25.42
2018-06-19T11:58:50.591Z,25.48
2018-06-19T12:00:29.117Z,25.52
2018-06-19T12:02:05.641Z,25.50
2018-06-19T12:03:43.451Z,25.27
2018-06-19T12:05:23.649Z,24.99
2018-06-19T12:07:00.608Z,24.94
2018-06-19T12:08:38.593Z,25.10
2018-06-19T12:10:15.356Z,25.19
2018-06-19T12:11:51.689Z,24.97
2018-06-19T12:13:28.298Z,25.17
2018-06-19T12:15:04.677Z,25.22
2018-06-19T12:16:43.795Z,25.29
2018-06-19T12:18:21.190Z,25.39
2018-06-19T12:20:00.314Z,25.28
2018-06-19T12:21:37.774Z,25.29
2018-06-19T12:23:17.230Z,25.57
2018-06-19T12:24:54.970Z,25.73
2018-06-19T12:26:33.855Z,25.72
2018-06-19T12:28:10.098Z,25.87
2018-06-19T12:29:48.230Z,25.97
2018-06-19T12:31:26.216Z,25.92
2018-06-19T12:33:04.782Z,25.87
2018-06-19T12:34:41.153Z,25.81
2018-06-19T12:36:28.850Z,25.65
2018-06-19T12:38:05.227Z,25.70
2018-06-19T12:39:42.137Z,25.63
2018-06-19T12:41:18.513Z,25.53
2018-06-19T12:43:04.973Z,25.54
2018-06-19T12:44:56.428Z,25.51
2018-06-19T12:46:33.845Z,25.52
2018-06-19T12:48:10.215Z,25.45
2018-06-19T12:50:33.468Z,25.38
2018-06-19T12:52:27.747Z,25.15
2018-06-19T12:54:23.589Z,24.83
2018-06-19T12:56:17.298Z,24.55
2018-06-19T12:57:54.482Z,24.67
2018-06-19T12:59:31.699Z,25.07
2018-06-19T13:01:10.189Z,25.23
2018-06-19T13:03:02.867Z,25.49
2018-06-19T13:04:58.560Z,25.93
2018-06-19T13:06:37.676Z,26.15
2018-06-19T13:08:15.515Z,26.06
2018-06-19T13:09:54.161Z,26.37
2018-06-19T13:11:37.330Z,26.49
2018-06-19T13:15:30.314Z,26.54
2018-06-19T13:17:27.645Z,26.21
2018-06-19T13:19:24.611Z,25.89
2018-06-19T13:21:05.419Z,25.90
2018-06-19T13:22:42.496Z,26.16
2018-06-19T13:24:20.592Z,26.17
2018-06-19T13:25:59.293Z,26.06
2018-06-19T13:27:36.426Z,26.17
2018-06-19T13:29:54.812Z,26.05
2018-06-19T13:31:41.758Z,26.13
2018-06-19T13:33:19.605Z,26.20
2018-06-19T13:34:59.416Z,26.23
2018-06-19T13:36:36.649Z,26.29
2018-06-19T13:38:14.246Z,26.15
2018-06-19T13:41:08.676Z,26.07
2018-06-19T13:45:03.645Z,26.10
2018-06-19T13:46:41.012Z,26.02
2018-06-19T13:48:18.768Z,25.78
2018-06-19T13:49:57.351Z,25.91
2018-06-19T13:51:34.980Z,26.06
2018-06-19T13:53:11.517Z,25.86
2018-06-19T13:54:49.582Z,26.13
2018-06-19T13:58:32.669Z,26.34
2018-06-19T14:00:22.388Z,26.09
2018-06-19T14:02:03.323Z,26.16
2018-06-19T14:03:43.197Z,26.23
2018-06-19T14:05:36.479Z,26.49
2018-06-19T14:07:17.993Z,26.39
2018-06-19T14:13:41.928Z,26.43
2018-06-19T14:15:21.567Z,25.72
2018-06-19T14:17:02.554Z,25.81
2018-06-19T14:18:40.380Z,25.79
2018-06-19T14:20:18.720Z,25.56
2018-06-19T14:21:56.316Z,25.28
2018-06-19T14:23:34.382Z,25.44
2018-06-19T14:25:11.307Z,25.31
2018-06-19T14:26:52.825Z,25.12
2018-06-19T14:28:34.457Z,25.25
2018-06-19T14:30:22.488Z,25.38
2018-06-19T14:33:55.839Z,25.78
2018-06-19T14:35:36.013Z,25.79
2018-06-19T14:37:12.615Z,25.74
2018-06-19T14:38:56.401Z,25.71
2018-06-19T14:40:36.602Z,25.79
2018-06-19T14:42:13.206Z,26.01
2018-06-19T14:43:49.595Z,26.24
2018-06-19T14:45:32.235Z,26.34
2018-06-19T14:48:57.526Z,25.99
2018-06-19T14:50:35.705Z,25.57
2018-06-19T14:52:13.215Z,25.54
2018-06-19T14:53:52.228Z,25.86
2018-06-19T14:55:32.717Z,26.14
2018-06-19T14:57:12.163Z,26.21
2018-06-19T14:58:53.622Z,26.29
2018-06-19T15:00:31.759Z,26.48
2018-06-19T15:02:09.805Z,26.41
2018-06-19T15:05:14.338Z,25.82
2018-06-19T15:06:53.498Z,25.74
2018-06-19T15:08:33.152Z,25.76
2018-06-19T15:10:09.780Z,25.87
2018-06-19T15:11:50.749Z,25.58
2018-06-19T15:13:28.674Z,25.55
2018-06-19T15:15:09.909Z,25.91
2018-06-19T15:16:48.009Z,26.06
2018-06-19T15:18:24.865Z,26.32
2018-06-19T15:20:04.373Z,26.52
2018-06-19T15:21:42.277Z,26.61
2018-06-19T15:23:23.256Z,26.55
2018-06-19T15:25:06.336Z,26.62
2018-06-19T15:26:44.404Z,26.67
2018-06-19T15:28:24.551Z,26.65
2018-06-19T15:31:42.600Z,26.64
2018-06-19T15:33:20.585Z,26.35
2018-06-19T15:34:58.451Z,25.78
2018-06-19T15:36:35.934Z,25.85
2018-06-19T15:38:14.373Z,26.18
2018-06-19T15:39:50.691Z,26.28
2018-06-19T15:41:27.219Z,26.47
2018-06-19T15:43:03.615Z,26.58
2018-06-19T15:44:40.744Z,26.51
2018-06-19T15:46:17.796Z,26.33
2018-06-19T15:47:54.595Z,26.17
2018-06-19T15:49:34.467Z,26.08
2018-06-19T15:51:14.320Z,26.14
2018-06-19T15:52:50.780Z,26.09
2018-06-19T15:54:30.450Z,25.97
2018-06-19T15:56:08.341Z,26.05
2018-06-19T15:57:50.090Z,26.23
2018-06-19T15:59:29.947Z,26.35
2018-06-19T16:01:08.654Z,26.52
2018-06-19T16:02:45.459Z,26.69
2018-06-19T16:04:29.431Z,26.88
2018-06-19T16:06:10.302Z,26.83
2018-06-19T16:07:55.581Z,26.63
2018-06-19T16:09:31.929Z,26.67
2018-06-19T16:11:08.340Z,26.69
2018-06-19T16:12:58.487Z,26.81
2018-06-19T16:14:37.563Z,26.72
2018-06-19T16:16:15.445Z,26.36
2018-06-19T16:17:57.822Z,26.46
2018-06-19T16:19:37.624Z,26.28
2018-06-19T16:21:17.561Z,26.40
2018-06-19T16:22:53.963Z,26.81
2018-06-19T16:24:35.588Z,26.96
2018-06-19T16:26:16.686Z,27.04
2018-06-19T16:27:53.202Z,27.06
2018-06-19T16:29:30.329Z,26.82
2018-06-19T16:31:07.972Z,26.86
2018-06-19T16:32:46.176Z,26.97
2018-06-19T16:34:25.710Z,27.00
2018-06-19T16:36:06.434Z,26.85
2018-06-19T16:37:47.052Z,26.96
2018-06-19T16:39:28.966Z,27.04
2018-06-19T16:41:05.275Z,26.90
2018-06-19T16:43:01.511Z,26.88
2018-06-19T16:44:42.516Z,26.55
2018-06-19T16:46:29.334Z,26.68
2018-06-19T16:48:13.396Z,26.68
2018-06-19T16:49:51.685Z,26.73
2018-06-19T16:51:35.396Z,26.58
2018-06-19T16:53:11.888Z,26.32
2018-06-19T16:54:49.187Z,26.27
2018-06-19T16:56:26.411Z,26.26
2018-06-19T16:58:03.753Z,26.12
2018-06-19T16:59:40.277Z,26.07
2018-06-19T17:01:18.711Z,26.06
2018-06-19T17:02:55.557Z,26.40
2018-06-19T17:04:34.846Z,26.35
2018-06-19T17:06:11.837Z,26.45
2018-06-19T17:07:49.741Z,26.56
2018-06-19T17:09:48.904Z,26.66
2018-06-19T17:11:31.427Z,26.62
2018-06-19T17:15:00.902Z,26.56
2018-06-19T17:16:42.686Z,26.58
2018-06-19T17:18:30.893Z,26.54
2018-06-19T17:20:13.357Z,26.51
2018-06-19T17:21:51.903Z,26.68
2018-06-19T17:23:29.799Z,26.70
2018-06-19T17:25:06.767Z,26.63
2018-06-19T17:26:52.349Z,26.53
2018-06-19T17:28:31.234Z,26.70
2018-06-19T17:31:58.457Z,26.66
2018-06-19T17:33:41.650Z,26.35
2018-06-19T17:35:21.881Z,26.56
2018-06-19T17:36:59.411Z,26.70
2018-06-19T17:38:39.535Z,26.71
2018-06-19T17:40:15.897Z,26.79
2018-06-19T17:41:53.592Z,26.78
2018-06-19T17:43:30.552Z,26.65
2018-06-19T17:45:10.499Z,26.54
2018-06-19T17:46:48.567Z,26.44
2018-06-19T17:48:27.633Z,26.41
2018-06-19T17:50:04.178Z,26.34
2018-06-19T17:51:48.402Z,26.28
2018-06-19T17:53:27.059Z,26.44
2018-06-19T17:55:05.352Z,26.47
2018-06-19T17:56:43.900Z,26.48
2018-06-19T17:58:22.430Z,26.71
2018-06-19T18:00:02.217Z,26.78
2018-06-19T18:01:40.458Z,26.83
2018-06-19T18:03:21.632Z,26.67
2018-06-19T18:04:58.670Z,26.62
2018-06-19T18:06:36.399Z,26.51
2018-06-19T18:08:12.869Z,26.73
2018-06-19T18:09:51.237Z,26.82
2018-06-19T18:11:29.746Z,26.87
2018-06-19T18:13:13.152Z,26.81
2018-06-19T18:14:52.800Z,26.73
2018-06-19T18:16:30.262Z,26.64
2018-06-19T18:18:08.638Z,26.43
2018-06-19T18:19:56.558Z,26.54
2018-06-19T18:23:19.012Z,26.57
2018-06-19T18:24:59.555Z,26.51
2018-06-19T18:26:39.425Z,26.59
2018-06-19T18:28:18.240Z,26.61
2018-06-19T18:30:00.101Z,26.54
2018-06-19T18:31:46.555Z,26.68
2018-06-19T18:33:29.622Z,26.71
2018-06-19T18:35:08.272Z,26.70
2018-06-19T18:36:46.257Z,26.67
2018-06-19T18:38:25.298Z,26.62
2018-06-19T18:40:13.352Z,26.51
2018-06-19T18:41:57.871Z,26.58
2018-06-19T18:43:38.235Z,26.56
2018-06-19T18:45:17.380Z,26.62
2018-06-19T18:46:57.283Z,26.71
2018-06-19T18:48:35.749Z,26.75
2018-06-19T18:50:13.466Z,26.79
2018-06-19T18:52:11.150Z,26.72
2018-06-19T18:55:37.622Z,26.34
2018-06-19T18:57:21.046Z,26.54
2018-06-19T18:58:59.519Z,26.59
2018-06-19T19:00:43.473Z,26.64
2018-06-19T19:02:23.399Z,26.65
2018-06-19T19:04:01.967Z,26.79
2018-06-19T19:05:42.846Z,26.82
2018-06-19T19:07:20.062Z,26.76
2018-06-19T19:08:58.534Z,26.66
2018-06-19T19:10:41.544Z,26.57
2018-06-19T19:12:19.465Z,26.64
2018-06-19T19:13:58.538Z,26.69
2018-06-19T19:15:41.971Z,26.71
2018-06-19T19:17:28.491Z,26.65
2018-06-19T19:19:09.961Z,26.49
2018-06-19T19:20:50.339Z,26.35
2018-06-19T19:22:27.504Z,26.28
2018-06-19T19:24:05.424Z,26.29
2018-06-19T19:25:43.542Z,26.28
2018-06-19T19:27:28.106Z,26.37
2018-06-19T19:29:09.420Z,26.31
2018-06-19T19:30:48.651Z,25.88
2018-06-19T19:32:25.800Z,25.95
2018-06-19T19:34:04.551Z,26.13
2018-06-19T19:35:43.529Z,26.14
2018-06-19T19:37:24.974Z,26.16
2018-06-19T19:39:06.974Z,26.04
2018-06-19T19:40:44.537Z,25.80
2018-06-19T19:42:24.793Z,25.87
2018-06-19T19:44:01.560Z,26.17
2018-06-19T19:45:39.321Z,26.35
2018-06-19T19:47:21.461Z,26.46
2018-06-19T19:48:59.803Z,26.47
2018-06-19T19:50:37.366Z,26.53
2018-06-19T19:52:18.073Z,26.55
2018-06-19T19:53:56.528Z,26.37
2018-06-19T19:55:35.537Z,26.33
2018-06-19T19:57:19.343Z,26.52
2018-06-19T19:59:02.359Z,26.57
2018-06-19T20:01:00.699Z,26.58
2018-06-19T20:02:48.619Z,26.57
2018-06-19T20:04:30.543Z,26.56
2018-06-19T20:08:06.268Z,26.53
2018-06-19T20:09:50.108Z,26.51
2018-06-19T20:11:27.658Z,26.51
2018-06-19T20:13:11.742Z,26.43
2018-06-19T20:14:49.997Z,26.39
2018-06-19T20:16:30.451Z,26.46
2018-06-19T20:18:11.391Z,26.45
2018-06-19T20:19:54.796Z,26.39
2018-06-19T20:21:33.200Z,26.37
2018-06-19T20:23:12.829Z,26.37
2018-06-19T20:24:53.371Z,26.35
2018-06-19T20:26:34.802Z,26.17
2018-06-19T20:28:14.814Z,26.09
2018-06-19T20:29:54.106Z,26.15
2018-06-19T20:31:33.753Z,26.31
2018-06-19T20:33:11.246Z,26.34
2018-06-19T20:34:50.545Z,26.32
2018-06-19T20:36:35.161Z,26.29
2018-06-19T20:38:21.201Z,26.34
2018-06-19T20:40:10.773Z,26.31
2018-06-19T20:41:52.565Z,26.26
2018-06-19T20:43:33.215Z,26.37
2018-06-19T20:46:57.146Z,26.43
2018-06-19T20:48:33.534Z,26.49
2018-06-19T20:50:11.798Z,26.59
2018-06-19T20:51:58.538Z,26.56
2018-06-19T20:53:39.249Z,26.37
2018-06-19T20:55:19.141Z,26.46
2018-06-19T20:56:57.627Z,26.40
2018-06-19T20:58:40.141Z,26.44
2018-06-19T21:00:30.487Z,26.56
2018-06-19T21:02:13.658Z,26.57
2018-06-19T21:03:52.718Z,26.51
2018-06-19T21:05:32.090Z,26.39
2018-06-19T21:07:13.839Z,26.41
2018-06-19T21:08:55.014Z,26.57
2018-06-19T21:10:34.381Z,26.61
2018-06-19T21:12:16.963Z,26.52
2018-06-19T21:14:02.227Z,26.15
2018-06-19T21:15:41.463Z,26.18
2018-06-19T21:17:20.638Z,26.28
2018-06-19T21:19:02.535Z,26.16
2018-06-19T21:20:39.556Z,25.90
2018-06-19T21:22:19.810Z,25.84
2018-06-19T21:23:56.302Z,25.59
2018-06-19T21:25:35.611Z,25.31
2018-06-19T21:27:13.507Z,25.24
2018-06-19T21:28:50.609Z,25.57
2018-06-19T21:30:31.626Z,25.74
2018-06-19T21:32:08.551Z,25.87
2018-06-19T21:33:48.380Z,25.90
2018-06-19T21:35:27.306Z,25.88
2018-06-19T21:37:09.037Z,25.86
2018-06-19T21:38:51.153Z,25.80
2018-06-19T21:40:34.160Z,26.03
2018-06-19T21:42:14.092Z,26.04
2018-06-19T21:43:53.847Z,26.02
2018-06-19T21:45:41.594Z,26.06
2018-06-19T21:47:23.034Z,26.04
2018-06-19T21:49:01.736Z,25.95